sensor_id;sensor_type;location;lat;lon;timestamp;noise_LAeq;noise_LA_min;noise_LA_max;noise_LA01;noise_LA95
38366;Laerm;943;51.568;6.998;2024-03-08T00:01:25;41.38;34.87;58.43;;
38366;Laerm;943;51.568;6.998;2024-03-08T00:03:54;41.07;36.66;48.56;;
38366;Laerm;943;51.568;6.998;2024-03-08T00:06:23;47.17;35.76;69.48;;
38366;Laerm;943;51.568;6.998;2024-03-08T00:08:53;40.68;34.63;58.84;;
38366;Laerm;943;51.568;6.998;2024-03-08T00:11:25;42.06;35.12;53.46;;
38366;Laerm;943;51.568;6.998;2024-03-08T00:13:56;43.79;38.64;53.39;;
38366;Laerm;943;51.568;6.998;2024-03-08T00:16:25;45.70;37.01;63.77;;
38366;Laerm;943;51.568;6.998;2024-03-08T00:18:54;43.19;35.32;58.70;;
38366;Laerm;943;51.568;6.998;2024-03-08T00:21:23;43.54;35.70;61.03;;
38366;Laerm;943;51.568;6.998;2024-03-08T00:23:54;43.34;36.80;56.14;;
38366;Laerm;943;51.568;6.998;2024-03-08T00:26:23;42.47;35.41;56.85;;
38366;Laerm;943;51.568;6.998;2024-03-08T00:28:53;44.51;36.95;56.66;;
38366;Laerm;943;51.568;6.998;2024-03-08T00:31:22;40.96;36.56;53.20;;
38366;Laerm;943;51.568;6.998;2024-03-08T00:33:53;41.73;36.11;58.11;;
38366;Laerm;943;51.568;6.998;2024-03-08T00:36:22;43.46;37.07;61.02;;
38366;Laerm;943;51.568;6.998;2024-03-08T00:38:53;44.49;35.32;64.32;;
38366;Laerm;943;51.568;6.998;2024-03-08T00:41:24;43.40;36.89;56.89;;
38366;Laerm;943;51.568;6.998;2024-03-08T00:43:54;43.56;38.71;57.87;;
38366;Laerm;943;51.568;6.998;2024-03-08T00:46:23;43.99;34.05;60.86;;
38366;Laerm;943;51.568;6.998;2024-03-08T00:48:53;44.12;36.32;58.09;;
38366;Laerm;943;51.568;6.998;2024-03-08T00:51:22;40.78;34.77;49.61;;
38366;Laerm;943;51.568;6.998;2024-03-08T00:53:51;41.18;34.91;53.07;;
38366;Laerm;943;51.568;6.998;2024-03-08T00:56:19;39.76;34.82;49.48;;
38366;Laerm;943;51.568;6.998;2024-03-08T00:58:48;39.73;34.21;58.33;;
38366;Laerm;943;51.568;6.998;2024-03-08T01:01:21;42.70;36.45;57.54;;
38366;Laerm;943;51.568;6.998;2024-03-08T01:03:49;44.71;38.37;61.87;;
38366;Laerm;943;51.568;6.998;2024-03-08T01:06:19;44.06;37.00;61.02;;
38366;Laerm;943;51.568;6.998;2024-03-08T01:08:48;46.06;36.65;60.99;;
38366;Laerm;943;51.568;6.998;2024-03-08T01:11:19;42.19;34.36;54.60;;
38366;Laerm;943;51.568;6.998;2024-03-08T01:13:49;43.66;36.06;57.82;;
38366;Laerm;943;51.568;6.998;2024-03-08T01:16:20;41.33;35.43;50.15;;
38366;Laerm;943;51.568;6.998;2024-03-08T01:18:51;42.69;36.05;57.34;;
38366;Laerm;943;51.568;6.998;2024-03-08T01:21:22;42.62;34.20;61.24;;
38366;Laerm;943;51.568;6.998;2024-03-08T01:23:51;45.34;36.89;60.94;;
38366;Laerm;943;51.568;6.998;2024-03-08T01:26:19;40.76;35.63;46.95;;
38366;Laerm;943;51.568;6.998;2024-03-08T01:28:50;45.06;33.78;58.07;;
38366;Laerm;943;51.568;6.998;2024-03-08T01:31:18;46.31;37.92;61.10;;
38366;Laerm;943;51.568;6.998;2024-03-08T01:35:55;42.79;37.03;57.22;;
38366;Laerm;943;51.568;6.998;2024-03-08T01:39:13;49.28;37.65;70.95;;
38366;Laerm;943;51.568;6.998;2024-03-08T01:41:43;40.91;36.56;47.08;;
38366;Laerm;943;51.568;6.998;2024-03-08T01:44:18;41.75;37.25;50.11;;
38366;Laerm;943;51.568;6.998;2024-03-08T01:46:49;43.36;38.21;58.28;;
38366;Laerm;943;51.568;6.998;2024-03-08T01:49:25;47.02;35.35;71.56;;
38366;Laerm;943;51.568;6.998;2024-03-08T01:51:57;42.03;34.28;52.73;;
38366;Laerm;943;51.568;6.998;2024-03-08T01:54:27;42.75;38.22;54.12;;
38366;Laerm;943;51.568;6.998;2024-03-08T01:56:58;41.04;36.83;49.80;;
38366;Laerm;943;51.568;6.998;2024-03-08T01:59:29;40.73;35.44;50.11;;
38366;Laerm;943;51.568;6.998;2024-03-08T02:02:04;44.54;37.99;58.67;;
38366;Laerm;943;51.568;6.998;2024-03-08T02:04:36;41.92;38.46;47.70;;
38366;Laerm;943;51.568;6.998;2024-03-08T02:07:06;43.22;37.26;59.34;;
38366;Laerm;943;51.568;6.998;2024-03-08T02:09:38;43.14;35.56;60.63;;
38366;Laerm;943;51.568;6.998;2024-03-08T02:12:11;41.97;37.21;49.79;;
38366;Laerm;943;51.568;6.998;2024-03-08T02:14:43;42.79;37.05;52.73;;
38366;Laerm;943;51.568;6.998;2024-03-08T02:17:13;41.83;37.54;47.81;;
38366;Laerm;943;51.568;6.998;2024-03-08T02:19:42;44.82;37.07;64.92;;
38366;Laerm;943;51.568;6.998;2024-03-08T02:22:11;49.86;39.22;71.31;;
38366;Laerm;943;51.568;6.998;2024-03-08T02:24:40;43.01;37.96;53.22;;
38366;Laerm;943;51.568;6.998;2024-03-08T02:27:12;42.22;38.16;56.28;;
38366;Laerm;943;51.568;6.998;2024-03-08T02:29:44;44.25;38.23;56.45;;
38366;Laerm;943;51.568;6.998;2024-03-08T02:32:13;42.84;39.20;49.36;;
38366;Laerm;943;51.568;6.998;2024-03-08T02:34:42;47.25;37.04;66.83;;
38366;Laerm;943;51.568;6.998;2024-03-08T02:37:10;43.55;38.44;57.41;;
38366;Laerm;943;51.568;6.998;2024-03-08T02:39:38;41.75;36.95;52.30;;
38366;Laerm;943;51.568;6.998;2024-03-08T02:42:12;43.80;36.70;63.44;;
38366;Laerm;943;51.568;6.998;2024-03-08T02:44:47;43.81;38.30;51.51;;
38366;Laerm;943;51.568;6.998;2024-03-08T02:47:16;41.14;36.90;51.07;;
38366;Laerm;943;51.568;6.998;2024-03-08T02:49:44;45.73;38.97;59.97;;
38366;Laerm;943;51.568;6.998;2024-03-08T02:52:13;45.80;38.86;63.13;;
38366;Laerm;943;51.568;6.998;2024-03-08T02:54:42;43.77;39.44;49.18;;
38366;Laerm;943;51.568;6.998;2024-03-08T02:57:15;46.85;39.38;62.30;;
38366;Laerm;943;51.568;6.998;2024-03-08T02:59:46;43.44;38.79;53.33;;
38366;Laerm;943;51.568;6.998;2024-03-08T03:02:19;44.62;38.29;61.36;;
38366;Laerm;943;51.568;6.998;2024-03-08T03:04:48;45.24;39.92;55.19;;
38366;Laerm;943;51.568;6.998;2024-03-08T03:12:04;43.65;39.06;52.00;;
38366;Laerm;943;51.568;6.998;2024-03-08T03:14:40;43.15;37.81;54.50;;
38366;Laerm;943;51.568;6.998;2024-03-08T03:17:11;44.98;40.51;54.14;;
38366;Laerm;943;51.568;6.998;2024-03-08T03:19:43;45.50;40.69;61.99;;
38366;Laerm;943;51.568;6.998;2024-03-08T03:22:12;43.38;39.63;49.97;;
38366;Laerm;943;51.568;6.998;2024-03-08T03:24:42;44.94;39.84;51.40;;
38366;Laerm;943;51.568;6.998;2024-03-08T03:27:15;45.41;41.58;56.59;;
38366;Laerm;943;51.568;6.998;2024-03-08T03:29:47;46.55;40.66;68.63;;
38366;Laerm;943;51.568;6.998;2024-03-08T03:32:18;46.98;41.68;67.86;;
38366;Laerm;943;51.568;6.998;2024-03-08T03:34:47;45.40;40.63;52.69;;
38366;Laerm;943;51.568;6.998;2024-03-08T03:37:20;46.14;41.48;53.76;;
38366;Laerm;943;51.568;6.998;2024-03-08T03:39:53;45.35;41.69;56.53;;
38366;Laerm;943;51.568;6.998;2024-03-08T03:42:22;47.17;42.52;64.76;;
38366;Laerm;943;51.568;6.998;2024-03-08T03:44:50;45.56;40.42;58.57;;
38366;Laerm;943;51.568;6.998;2024-03-08T03:47:19;45.48;40.80;52.36;;
38366;Laerm;943;51.568;6.998;2024-03-08T03:49:47;45.45;41.65;53.83;;
38366;Laerm;943;51.568;6.998;2024-03-08T03:52:17;46.44;42.52;55.15;;
38366;Laerm;943;51.568;6.998;2024-03-08T03:54:46;46.38;42.71;59.37;;
38366;Laerm;943;51.568;6.998;2024-03-08T03:57:14;47.09;41.82;59.90;;
38366;Laerm;943;51.568;6.998;2024-03-08T03:59:43;45.95;41.99;51.64;;
38366;Laerm;943;51.568;6.998;2024-03-08T04:02:11;46.13;41.74;56.45;;
38366;Laerm;943;51.568;6.998;2024-03-08T04:04:40;45.53;41.86;50.38;;
38366;Laerm;943;51.568;6.998;2024-03-08T04:07:11;46.97;42.43;56.82;;
38366;Laerm;943;51.568;6.998;2024-03-08T04:09:41;47.01;43.73;60.95;;
38366;Laerm;943;51.568;6.998;2024-03-08T04:12:10;47.91;42.91;62.05;;
38366;Laerm;943;51.568;6.998;2024-03-08T04:14:43;47.10;43.47;53.06;;
38366;Laerm;943;51.568;6.998;2024-03-08T04:17:18;47.61;44.00;52.29;;
38366;Laerm;943;51.568;6.998;2024-03-08T04:19:51;47.35;42.04;55.59;;
38366;Laerm;943;51.568;6.998;2024-03-08T04:22:22;46.81;43.25;51.46;;
38366;Laerm;943;51.568;6.998;2024-03-08T04:24:51;48.16;44.00;55.97;;
38366;Laerm;943;51.568;6.998;2024-03-08T04:27:20;47.26;43.46;50.36;;
38366;Laerm;943;51.568;6.998;2024-03-08T04:29:48;47.27;43.24;52.62;;
38366;Laerm;943;51.568;6.998;2024-03-08T04:32:17;49.08;45.49;58.29;;
38366;Laerm;943;51.568;6.998;2024-03-08T04:34:46;48.45;43.60;53.26;;
38366;Laerm;943;51.568;6.998;2024-03-08T04:37:18;51.74;44.20;70.30;;
38366;Laerm;943;51.568;6.998;2024-03-08T04:39:50;48.15;44.29;52.79;;
38366;Laerm;943;51.568;6.998;2024-03-08T04:42:19;47.59;43.87;56.47;;
38366;Laerm;943;51.568;6.998;2024-03-08T04:44:48;47.42;43.09;59.55;;
38366;Laerm;943;51.568;6.998;2024-03-08T04:47:19;50.04;44.61;68.89;;
38366;Laerm;943;51.568;6.998;2024-03-08T04:49:48;47.29;43.86;50.85;;
38366;Laerm;943;51.568;6.998;2024-03-08T04:52:17;47.50;44.52;55.19;;
38366;Laerm;943;51.568;6.998;2024-03-08T04:54:46;48.11;44.17;55.87;;
38366;Laerm;943;51.568;6.998;2024-03-08T04:57:15;48.99;43.73;53.68;;
38366;Laerm;943;51.568;6.998;2024-03-08T04:59:47;47.55;43.49;53.89;;
38366;Laerm;943;51.568;6.998;2024-03-08T05:02:15;49.31;43.72;69.22;;
38366;Laerm;943;51.568;6.998;2024-03-08T05:04:44;48.93;44.40;56.61;;
38366;Laerm;943;51.568;6.998;2024-03-08T05:07:13;49.09;43.82;58.60;;
38366;Laerm;943;51.568;6.998;2024-03-08T05:09:42;49.48;43.22;60.42;;
38366;Laerm;943;51.568;6.998;2024-03-08T05:12:11;50.14;43.49;61.82;;
38366;Laerm;943;51.568;6.998;2024-03-08T05:14:40;50.32;44.01;61.96;;
38366;Laerm;943;51.568;6.998;2024-03-08T05:17:09;50.62;44.81;60.11;;
38366;Laerm;943;51.568;6.998;2024-03-08T05:19:38;51.38;45.86;62.83;;
38366;Laerm;943;51.568;6.998;2024-03-08T05:22:07;50.80;45.37;60.51;;
38366;Laerm;943;51.568;6.998;2024-03-08T05:24:36;53.36;45.31;68.82;;
38366;Laerm;943;51.568;6.998;2024-03-08T05:27:06;54.53;45.55;66.86;;
38366;Laerm;943;51.568;6.998;2024-03-08T05:32:27;54.30;44.93;69.62;;
38366;Laerm;943;51.568;6.998;2024-03-08T05:45:35;49.86;44.73;66.08;;
38366;Laerm;943;51.568;6.998;2024-03-08T05:48:05;49.06;45.43;56.36;;
38366;Laerm;943;51.568;6.998;2024-03-08T05:50:38;47.47;44.00;52.46;;
38366;Laerm;943;51.568;6.998;2024-03-08T05:53:07;49.15;44.62;60.03;;
38366;Laerm;943;51.568;6.998;2024-03-08T05:55:36;49.30;44.73;56.94;;
38366;Laerm;943;51.568;6.998;2024-03-08T05:58:07;49.63;45.42;69.46;;
38366;Laerm;943;51.568;6.998;2024-03-08T06:00:37;48.51;44.40;56.85;;
38366;Laerm;943;51.568;6.998;2024-03-08T06:03:05;49.91;44.17;60.72;;
38366;Laerm;943;51.568;6.998;2024-03-08T06:05:34;48.67;45.54;58.56;;
38366;Laerm;943;51.568;6.998;2024-03-08T06:08:03;53.70;44.98;72.54;;
38366;Laerm;943;51.568;6.998;2024-03-08T06:10:33;49.31;46.11;56.37;;
38366;Laerm;943;51.568;6.998;2024-03-08T06:13:02;48.95;45.42;60.58;;
38366;Laerm;943;51.568;6.998;2024-03-08T06:15:31;50.21;46.48;58.36;;
38366;Laerm;943;51.568;6.998;2024-03-08T06:18:00;47.97;45.06;51.54;;
38366;Laerm;943;51.568;6.998;2024-03-08T06:20:28;48.89;45.59;57.99;;
38366;Laerm;943;51.568;6.998;2024-03-08T06:22:57;49.48;45.67;55.28;;
38366;Laerm;943;51.568;6.998;2024-03-08T06:25:25;48.95;45.35;57.29;;
38366;Laerm;943;51.568;6.998;2024-03-08T06:27:54;49.11;46.05;54.58;;
38366;Laerm;943;51.568;6.998;2024-03-08T06:30:23;49.17;45.56;58.01;;
38366;Laerm;943;51.568;6.998;2024-03-08T06:32:52;49.36;44.88;56.07;;
38366;Laerm;943;51.568;6.998;2024-03-08T06:35:21;49.87;45.80;58.38;;
38366;Laerm;943;51.568;6.998;2024-03-08T06:37:50;50.24;46.15;62.65;;
38366;Laerm;943;51.568;6.998;2024-03-08T06:40:18;50.20;44.74;59.51;;
38366;Laerm;943;51.568;6.998;2024-03-08T06:42:48;52.49;46.64;68.81;;
38366;Laerm;943;51.568;6.998;2024-03-08T06:45:24;50.52;46.42;71.12;;
38366;Laerm;943;51.568;6.998;2024-03-08T06:47:56;51.17;46.24;62.06;;
38366;Laerm;943;51.568;6.998;2024-03-08T06:50:25;52.05;46.14;60.07;;
38366;Laerm;943;51.568;6.998;2024-03-08T06:52:54;49.53;43.94;65.32;;
38366;Laerm;943;51.568;6.998;2024-03-08T06:55:23;50.20;45.95;69.63;;
38366;Laerm;943;51.568;6.998;2024-03-08T06:57:52;49.31;44.07;64.87;;
38366;Laerm;943;51.568;6.998;2024-03-08T07:00:30;49.13;44.62;61.34;;
38366;Laerm;943;51.568;6.998;2024-03-08T07:03:02;47.94;45.32;54.82;;
38366;Laerm;943;51.568;6.998;2024-03-08T07:05:32;48.04;44.41;53.06;;
38366;Laerm;943;51.568;6.998;2024-03-08T07:08:01;46.63;43.50;50.91;;
38366;Laerm;943;51.568;6.998;2024-03-08T07:10:30;47.51;43.46;59.16;;
38366;Laerm;943;51.568;6.998;2024-03-08T07:13:02;47.84;43.95;59.68;;
38366;Laerm;943;51.568;6.998;2024-03-08T07:15:31;47.92;44.16;54.64;;
38366;Laerm;943;51.568;6.998;2024-03-08T07:18:01;49.59;45.99;58.41;;
38366;Laerm;943;51.568;6.998;2024-03-08T07:20:30;48.78;45.29;60.21;;
38366;Laerm;943;51.568;6.998;2024-03-08T07:22:59;50.75;46.04;63.07;;
38366;Laerm;943;51.568;6.998;2024-03-08T07:25:30;50.97;45.92;64.86;;
38366;Laerm;943;51.568;6.998;2024-03-08T07:28:01;48.99;45.32;60.08;;
38366;Laerm;943;51.568;6.998;2024-03-08T07:30:45;52.88;46.18;68.59;;
38366;Laerm;943;51.568;6.998;2024-03-08T07:33:13;49.39;45.60;62.82;;
38366;Laerm;943;51.568;6.998;2024-03-08T07:35:47;49.46;45.53;60.75;;
38366;Laerm;943;51.568;6.998;2024-03-08T07:38:22;48.48;45.52;57.97;;
38366;Laerm;943;51.568;6.998;2024-03-08T07:40:54;49.52;45.22;58.77;;
38366;Laerm;943;51.568;6.998;2024-03-08T07:43:27;48.70;45.26;56.80;;
38366;Laerm;943;51.568;6.998;2024-03-08T07:45:55;49.17;43.78;62.86;;
38366;Laerm;943;51.568;6.998;2024-03-08T07:48:27;46.86;43.28;57.43;;
38366;Laerm;943;51.568;6.998;2024-03-08T07:50:56;47.68;43.97;57.27;;
38366;Laerm;943;51.568;6.998;2024-03-08T07:53:26;48.33;43.51;64.26;;
38366;Laerm;943;51.568;6.998;2024-03-08T07:55:55;47.79;44.66;55.10;;
38366;Laerm;943;51.568;6.998;2024-03-08T07:58:24;52.75;43.55;70.17;;
38366;Laerm;943;51.568;6.998;2024-03-08T08:00:55;46.99;43.27;55.49;;
38366;Laerm;943;51.568;6.998;2024-03-08T08:03:25;48.96;43.21;65.39;;
38366;Laerm;943;51.568;6.998;2024-03-08T08:05:55;50.91;44.22;68.12;;
38366;Laerm;943;51.568;6.998;2024-03-08T08:08:26;54.25;45.02;69.54;;
38366;Laerm;943;51.568;6.998;2024-03-08T08:10:55;51.19;43.20;64.99;;
38366;Laerm;943;51.568;6.998;2024-03-08T08:13:24;49.05;43.87;62.42;;
38366;Laerm;943;51.568;6.998;2024-03-08T08:15:54;51.88;43.65;78.76;;
38366;Laerm;943;51.568;6.998;2024-03-08T08:18:26;51.12;44.21;73.93;;
38366;Laerm;943;51.568;6.998;2024-03-08T08:20:55;49.42;45.01;64.25;;
38366;Laerm;943;51.568;6.998;2024-03-08T08:23:24;52.73;44.44;69.70;;
38366;Laerm;943;51.568;6.998;2024-03-08T08:25:53;48.66;43.77;63.80;;
38366;Laerm;943;51.568;6.998;2024-03-08T08:28:21;47.83;43.72;57.41;;
38366;Laerm;943;51.568;6.998;2024-03-08T08:30:52;51.80;43.13;70.70;;
38366;Laerm;943;51.568;6.998;2024-03-08T08:33:21;49.06;43.76;66.65;;
38366;Laerm;943;51.568;6.998;2024-03-08T08:35:54;47.41;44.48;56.81;;
38366;Laerm;943;51.568;6.998;2024-03-08T08:38:25;48.53;44.63;61.52;;
38366;Laerm;943;51.568;6.998;2024-03-08T08:40:54;53.78;46.11;67.44;;
38366;Laerm;943;51.568;6.998;2024-03-08T08:43:27;48.27;42.99;59.27;;
38366;Laerm;943;51.568;6.998;2024-03-08T08:45:56;55.67;44.19;68.59;;
38366;Laerm;943;51.568;6.998;2024-03-08T08:48:28;53.57;43.08;68.27;;
38366;Laerm;943;51.568;6.998;2024-03-08T08:50:59;47.34;42.85;59.75;;
38366;Laerm;943;51.568;6.998;2024-03-08T08:53:29;48.41;43.75;60.25;;
38366;Laerm;943;51.568;6.998;2024-03-08T08:55:58;52.92;44.68;74.09;;
38366;Laerm;943;51.568;6.998;2024-03-08T08:58:28;49.44;43.80;64.24;;
38366;Laerm;943;51.568;6.998;2024-03-08T09:00:56;49.83;42.62;63.67;;
38366;Laerm;943;51.568;6.998;2024-03-08T09:03:29;51.39;42.52;63.51;;
38366;Laerm;943;51.568;6.998;2024-03-08T09:05:59;47.76;42.71;60.79;;
38366;Laerm;943;51.568;6.998;2024-03-08T09:08:28;51.26;43.92;66.31;;
38366;Laerm;943;51.568;6.998;2024-03-08T09:11:00;51.53;42.40;68.24;;
38366;Laerm;943;51.568;6.998;2024-03-08T09:13:29;48.47;41.65;57.78;;
38366;Laerm;943;51.568;6.998;2024-03-08T09:16:06;52.77;44.50;71.91;;
38366;Laerm;943;51.568;6.998;2024-03-08T09:18:36;47.72;42.28;62.72;;
38366;Laerm;943;51.568;6.998;2024-03-08T09:21:10;48.45;44.23;61.30;;
38366;Laerm;943;51.568;6.998;2024-03-08T09:23:43;49.93;44.84;65.62;;
38366;Laerm;943;51.568;6.998;2024-03-08T09:26:17;49.64;42.70;70.54;;
38366;Laerm;943;51.568;6.998;2024-03-08T09:28:56;48.34;43.62;61.05;;
38366;Laerm;943;51.568;6.998;2024-03-08T09:31:26;51.01;43.41;65.66;;
38366;Laerm;943;51.568;6.998;2024-03-08T09:33:55;51.20;43.07;68.50;;
38366;Laerm;943;51.568;6.998;2024-03-08T09:36:25;50.09;42.85;67.92;;
38366;Laerm;943;51.568;6.998;2024-03-08T09:38:54;52.94;44.93;69.57;;
38366;Laerm;943;51.568;6.998;2024-03-08T09:41:23;55.27;46.52;75.32;;
38366;Laerm;943;51.568;6.998;2024-03-08T09:43:52;48.41;43.84;64.68;;
38366;Laerm;943;51.568;6.998;2024-03-08T09:46:23;62.19;44.86;86.67;;
38366;Laerm;943;51.568;6.998;2024-03-08T09:48:51;56.14;45.68;73.94;;
38366;Laerm;943;51.568;6.998;2024-03-08T09:51:29;52.22;45.18;69.03;;
38366;Laerm;943;51.568;6.998;2024-03-08T09:54:00;49.21;43.32;65.96;;
38366;Laerm;943;51.568;6.998;2024-03-08T09:56:44;50.15;44.29;61.10;;
38366;Laerm;943;51.568;6.998;2024-03-08T09:59:28;50.24;44.82;61.37;;
38366;Laerm;943;51.568;6.998;2024-03-08T10:02:02;61.28;46.27;81.96;;
38366;Laerm;943;51.568;6.998;2024-03-08T10:04:32;54.79;45.65;68.27;;
38366;Laerm;943;51.568;6.998;2024-03-08T10:07:08;53.28;43.89;71.81;;
38366;Laerm;943;51.568;6.998;2024-03-08T10:09:36;57.00;45.24;76.14;;
38366;Laerm;943;51.568;6.998;2024-03-08T10:12:07;52.90;43.84;67.14;;
38366;Laerm;943;51.568;6.998;2024-03-08T10:14:41;51.63;44.82;67.86;;
38366;Laerm;943;51.568;6.998;2024-03-08T10:17:10;60.25;43.72;80.44;;
38366;Laerm;943;51.568;6.998;2024-03-08T10:19:51;56.81;46.22;74.61;;
38366;Laerm;943;51.568;6.998;2024-03-08T10:22:21;55.99;44.23;73.11;;
38366;Laerm;943;51.568;6.998;2024-03-08T10:24:51;51.48;44.70;65.86;;
38366;Laerm;943;51.568;6.998;2024-03-08T10:27:20;56.69;44.13;81.78;;
38366;Laerm;943;51.568;6.998;2024-03-08T10:29:52;59.09;45.52;79.27;;
38366;Laerm;943;51.568;6.998;2024-03-08T10:32:24;55.81;44.01;76.47;;
38366;Laerm;943;51.568;6.998;2024-03-08T10:34:53;52.26;42.89;77.26;;
38366;Laerm;943;51.568;6.998;2024-03-08T10:37:28;56.49;45.69;74.25;;
38366;Laerm;943;51.568;6.998;2024-03-08T10:40:18;50.03;43.83;64.25;;
38366;Laerm;943;51.568;6.998;2024-03-08T10:42:59;48.42;43.18;59.87;;
38366;Laerm;943;51.568;6.998;2024-03-08T10:45:42;54.49;44.81;68.78;;
38366;Laerm;943;51.568;6.998;2024-03-08T10:48:43;49.91;42.79;63.92;;
38366;Laerm;943;51.568;6.998;2024-03-08T10:51:16;53.96;44.70;73.62;;
38366;Laerm;943;51.568;6.998;2024-03-08T10:53:52;57.62;43.47;80.20;;
38366;Laerm;943;51.568;6.998;2024-03-08T10:56:22;48.82;42.94;64.80;;
38366;Laerm;943;51.568;6.998;2024-03-08T10:58:51;52.64;44.12;71.78;;
38366;Laerm;943;51.568;6.998;2024-03-08T11:01:21;55.05;44.92;72.03;;
38366;Laerm;943;51.568;6.998;2024-03-08T11:03:56;57.07;46.46;76.33;;
38366;Laerm;943;51.568;6.998;2024-03-08T11:06:46;50.76;44.79;65.56;;
38366;Laerm;943;51.568;6.998;2024-03-08T11:09:36;55.98;43.47;77.08;;
38366;Laerm;943;51.568;6.998;2024-03-08T11:12:38;47.83;42.34;61.75;;
38366;Laerm;943;51.568;6.998;2024-03-08T11:15:14;48.82;42.87;60.74;;
38366;Laerm;943;51.568;6.998;2024-03-08T11:17:50;48.13;41.58;62.59;;
38366;Laerm;943;51.568;6.998;2024-03-08T11:20:23;50.69;43.14;67.99;;
38366;Laerm;943;51.568;6.998;2024-03-08T11:23:04;48.46;43.64;60.14;;
38366;Laerm;943;51.568;6.998;2024-03-08T11:25:46;52.91;44.46;70.09;;
38366;Laerm;943;51.568;6.998;2024-03-08T11:28:24;48.40;41.86;61.78;;
38366;Laerm;943;51.568;6.998;2024-03-08T11:33:31;50.12;42.75;64.65;;
38366;Laerm;943;51.568;6.998;2024-03-08T11:36:38;48.23;41.28;66.34;;
38366;Laerm;943;51.568;6.998;2024-03-08T11:39:19;60.56;45.24;77.93;;
38366;Laerm;943;51.568;6.998;2024-03-08T11:41:49;59.46;45.35;77.86;;
38366;Laerm;943;51.568;6.998;2024-03-08T11:44:20;56.86;45.63;76.54;;
38366;Laerm;943;51.568;6.998;2024-03-08T11:46:49;56.83;46.85;70.09;;
38366;Laerm;943;51.568;6.998;2024-03-08T11:49:18;51.81;43.91;67.81;;
38366;Laerm;943;51.568;6.998;2024-03-08T11:51:52;56.09;45.03;76.71;;
38366;Laerm;943;51.568;6.998;2024-03-08T11:54:23;58.97;43.37;77.42;;
38366;Laerm;943;51.568;6.998;2024-03-08T11:56:53;54.41;45.42;73.54;;
38366;Laerm;943;51.568;6.998;2024-03-08T11:59:28;55.98;43.14;72.78;;
38366;Laerm;943;51.568;6.998;2024-03-08T12:02:06;49.82;44.82;67.42;;
38366;Laerm;943;51.568;6.998;2024-03-08T12:04:37;60.46;44.21;83.16;;
38366;Laerm;943;51.568;6.998;2024-03-08T12:07:18;53.89;46.63;66.72;;
38366;Laerm;943;51.568;6.998;2024-03-08T12:10:22;55.07;45.36;71.47;;
38366;Laerm;943;51.568;6.998;2024-03-08T12:12:57;52.51;45.50;67.50;;
38366;Laerm;943;51.568;6.998;2024-03-08T12:15:33;54.68;44.33;67.66;;
38366;Laerm;943;51.568;6.998;2024-03-08T12:18:07;51.12;41.85;63.47;;
38366;Laerm;943;51.568;6.998;2024-03-08T12:20:40;50.28;41.57;62.43;;
38366;Laerm;943;51.568;6.998;2024-03-08T12:23:17;53.70;45.14;69.91;;
38366;Laerm;943;51.568;6.998;2024-03-08T12:25:47;53.04;43.62;76.18;;
38366;Laerm;943;51.568;6.998;2024-03-08T12:28:19;61.30;45.70;82.09;;
38366;Laerm;943;51.568;6.998;2024-03-08T12:31:00;55.02;46.43;74.53;;
38366;Laerm;943;51.568;6.998;2024-03-08T12:33:31;52.23;45.21;68.48;;
38366;Laerm;943;51.568;6.998;2024-03-08T12:36:00;59.84;45.21;77.66;;
38366;Laerm;943;51.568;6.998;2024-03-08T12:38:32;55.93;44.28;76.48;;
38366;Laerm;943;51.568;6.998;2024-03-08T12:41:02;54.71;43.16;75.24;;
38366;Laerm;943;51.568;6.998;2024-03-08T12:43:33;56.32;44.81;78.45;;
38366;Laerm;943;51.568;6.998;2024-03-08T12:46:06;52.24;44.10;68.84;;
38366;Laerm;943;51.568;6.998;2024-03-08T12:48:42;48.54;41.58;66.23;;
38366;Laerm;943;51.568;6.998;2024-03-08T12:51:20;50.04;41.80;74.58;;
38366;Laerm;943;51.568;6.998;2024-03-08T12:53:56;53.86;41.93;73.95;;
38366;Laerm;943;51.568;6.998;2024-03-08T12:56:37;57.81;42.82;82.49;;
38366;Laerm;943;51.568;6.998;2024-03-08T12:59:10;51.71;42.51;70.24;;
38366;Laerm;943;51.568;6.998;2024-03-08T13:01:38;49.55;43.02;63.48;;
38366;Laerm;943;51.568;6.998;2024-03-08T13:04:11;49.65;43.72;68.31;;
38366;Laerm;943;51.568;6.998;2024-03-08T13:06:42;56.60;41.95;73.52;;
38366;Laerm;943;51.568;6.998;2024-03-08T13:09:15;48.68;42.46;68.98;;
38366;Laerm;943;51.568;6.998;2024-03-08T13:12:13;47.92;41.02;59.70;;
38366;Laerm;943;51.568;6.998;2024-03-08T13:15:11;49.06;42.55;65.91;;
38366;Laerm;943;51.568;6.998;2024-03-08T13:18:16;49.86;42.90;62.43;;
38366;Laerm;943;51.568;6.998;2024-03-08T13:22:13;49.49;42.87;65.61;;
38366;Laerm;943;51.568;6.998;2024-03-08T13:25:13;50.67;42.67;69.14;;
38366;Laerm;943;51.568;6.998;2024-03-08T13:27:50;50.04;42.81;68.12;;
38366;Laerm;943;51.568;6.998;2024-03-08T13:30:52;56.27;43.23;78.35;;
38366;Laerm;943;51.568;6.998;2024-03-08T13:33:57;55.20;42.27;70.43;;
38366;Laerm;943;51.568;6.998;2024-03-08T13:36:52;55.72;44.04;76.83;;
38366;Laerm;943;51.568;6.998;2024-03-08T13:39:47;48.99;43.52;63.49;;
38366;Laerm;943;51.568;6.998;2024-03-08T13:42:42;50.56;43.79;66.61;;
38366;Laerm;943;51.568;6.998;2024-03-08T13:45:24;49.46;43.85;64.38;;
38366;Laerm;943;51.568;6.998;2024-03-08T13:47:55;54.05;42.95;72.80;;
38366;Laerm;943;51.568;6.998;2024-03-08T13:50:27;50.32;44.18;66.22;;
38366;Laerm;943;51.568;6.998;2024-03-08T13:52:56;52.04;43.42;71.40;;
38366;Laerm;943;51.568;6.998;2024-03-08T13:55:27;50.82;44.75;65.02;;
38366;Laerm;943;51.568;6.998;2024-03-08T13:58:00;50.90;43.35;66.54;;
38366;Laerm;943;51.568;6.998;2024-03-08T14:00:34;56.82;42.50;76.60;;
38366;Laerm;943;51.568;6.998;2024-03-08T14:03:10;55.43;43.53;71.25;;
38366;Laerm;943;51.568;6.998;2024-03-08T14:05:47;51.94;43.07;66.83;;
38366;Laerm;943;51.568;6.998;2024-03-08T14:08:19;61.36;43.49;83.05;;
38366;Laerm;943;51.568;6.998;2024-03-08T14:10:54;51.21;43.35;65.93;;
38366;Laerm;943;51.568;6.998;2024-03-08T14:13:27;61.01;44.95;77.19;;
38366;Laerm;943;51.568;6.998;2024-03-08T14:15:57;59.11;42.29;85.49;;
38366;Laerm;943;51.568;6.998;2024-03-08T14:18:29;60.24;44.81;78.64;;
38366;Laerm;943;51.568;6.998;2024-03-08T14:20:59;51.25;44.39;68.02;;
38366;Laerm;943;51.568;6.998;2024-03-08T14:23:28;54.32;43.93;74.12;;
38366;Laerm;943;51.568;6.998;2024-03-08T14:26:00;54.80;42.94;74.91;;
38366;Laerm;943;51.568;6.998;2024-03-08T14:28:29;53.07;42.08;72.88;;
38366;Laerm;943;51.568;6.998;2024-03-08T14:31:10;61.56;44.89;78.74;;
38366;Laerm;943;51.568;6.998;2024-03-08T14:33:49;62.40;45.75;81.54;;
38366;Laerm;943;51.568;6.998;2024-03-08T14:36:20;60.90;42.62;83.48;;
38366;Laerm;943;51.568;6.998;2024-03-08T14:38:49;52.82;43.73;66.37;;
38366;Laerm;943;51.568;6.998;2024-03-08T14:41:19;59.44;44.08;79.33;;
38366;Laerm;943;51.568;6.998;2024-03-08T14:43:54;56.14;44.52;80.61;;
38366;Laerm;943;51.568;6.998;2024-03-08T14:46:25;56.99;44.54;78.11;;
38366;Laerm;943;51.568;6.998;2024-03-08T14:48:57;59.73;46.27;76.71;;
38366;Laerm;943;51.568;6.998;2024-03-08T14:51:33;57.44;44.80;75.76;;
38366;Laerm;943;51.568;6.998;2024-03-08T14:54:07;62.84;44.81;81.87;;
38366;Laerm;943;51.568;6.998;2024-03-08T14:56:44;62.02;44.64;85.53;;
38366;Laerm;943;51.568;6.998;2024-03-08T14:59:16;50.69;44.66;66.16;;
38366;Laerm;943;51.568;6.998;2024-03-08T15:01:46;54.79;43.43;77.41;;
38366;Laerm;943;51.568;6.998;2024-03-08T15:04:20;53.02;43.58;69.01;;